SLAS/ASC METAR and TAF weather

Enter ICAO airport designator
Station Type Date Time Source
SLAS METAR 2019/06/10 16:00 UTC NOAA

SLAS 101600Z 36008KT 9999 NSC 30/22 Q1017


Station Type Date Time Source
SLAS Decoded METAR 2019/06/10 16:00 UTC NOAA

Ascencion De Guarayos, Bolivia (SLAS) 15-43S 063-06W
Jun 10, 2019 - 12:00 PM EDT / 2019.06.10 1600 UTC
Wind: from the N (360 degrees) at 9 MPH (8 KT):0
Visibility: greater than 7 mile(s):0
Temperature: 86 F (30 C)
Heat index: 91.8 F (33.2 C):1
Dew Point: 71 F (22 C)
Relative Humidity: 62%
Pressure (altimeter): 30.03 in. Hg (1017 hPa)
ob: SLAS 101600Z 36008KT 9999 NSC 30/22 Q1017
cycle: 16

Station Type Date Time Source
SLAS TAF UTC NOAA

Error!

Example: see airport list